createdAt,value
2024-02-19T00:01:38.800Z,5.24
2024-02-19T00:04:10.023Z,5.30
2024-02-19T00:06:41.355Z,5.30
2024-02-19T00:09:14.585Z,5.20
2024-02-19T00:11:45.799Z,5.20
2024-02-19T00:14:16.967Z,5.20
2024-02-19T00:16:48.988Z,5.20
2024-02-19T00:19:20.341Z,5.20
2024-02-19T00:21:51.512Z,5.14
2024-02-19T00:24:23.022Z,5.10
2024-02-19T00:26:54.266Z,5.10
2024-02-19T00:29:25.471Z,5.10
2024-02-19T00:31:56.617Z,5.10
2024-02-19T00:34:28.501Z,5.08
2024-02-19T00:36:59.660Z,5.04
2024-02-19T00:39:30.956Z,5.02
2024-02-19T00:42:02.027Z,5.00
2024-02-19T00:44:33.262Z,5.00
2024-02-19T00:47:04.351Z,5.00
2024-02-19T00:49:35.596Z,5.00
2024-02-19T00:52:07.685Z,5.00
2024-02-19T00:54:38.968Z,5.00
2024-02-19T00:57:10.854Z,5.00
2024-02-19T00:59:41.993Z,5.02
2024-02-19T01:02:13.092Z,5.10
2024-02-19T01:04:44.362Z,5.10
2024-02-19T01:07:17.727Z,5.10
2024-02-19T01:09:49.391Z,5.10
2024-02-19T01:12:20.613Z,5.18
2024-02-19T01:14:51.729Z,5.20
2024-02-19T01:17:22.913Z,5.20
2024-02-19T01:19:54.233Z,5.20
2024-02-19T01:22:25.920Z,5.20
2024-02-19T01:24:57.610Z,5.20
2024-02-19T01:27:29.972Z,5.20
2024-02-19T01:30:01.589Z,5.26
2024-02-19T01:32:32.858Z,5.30
2024-02-19T01:35:04.159Z,5.30
2024-02-19T01:37:35.490Z,5.30
2024-02-19T01:40:11.092Z,5.38
2024-02-19T01:42:42.655Z,5.40
2024-02-19T01:45:27.072Z,5.40
2024-02-19T01:47:59.215Z,5.50
2024-02-19T01:50:32.991Z,5.50
2024-02-19T01:53:08.779Z,5.50
2024-02-19T01:55:41.051Z,5.50
2024-02-19T01:58:13.260Z,5.60
2024-02-19T02:00:49.157Z,5.60
2024-02-19T02:03:22.153Z,5.68
2024-02-19T02:05:53.492Z,5.70
2024-02-19T02:08:24.830Z,5.70
2024-02-19T02:10:56.157Z,5.70
2024-02-19T02:13:27.411Z,5.74
2024-02-19T02:15:58.483Z,5.80
2024-02-19T02:18:29.670Z,5.80
2024-02-19T02:21:00.973Z,5.80
2024-02-19T02:23:32.397Z,5.80
2024-02-19T02:26:03.510Z,5.80
2024-02-19T02:28:34.774Z,5.80
2024-02-19T02:31:06.554Z,5.86
2024-02-19T02:33:37.932Z,5.88
2024-02-19T02:36:13.623Z,5.86
2024-02-19T02:38:44.791Z,5.90
2024-02-19T02:41:16.397Z,5.90
2024-02-19T02:43:47.539Z,5.90
2024-02-19T02:46:18.779Z,5.90
2024-02-19T02:48:50.052Z,5.90
2024-02-19T02:51:21.612Z,5.90
2024-02-19T02:53:52.921Z,6.00
2024-02-19T02:56:24.188Z,6.00
2024-02-19T02:58:55.502Z,6.00
2024-02-19T03:01:31.385Z,6.00
2024-02-19T03:04:02.807Z,6.08
2024-02-19T03:06:33.936Z,6.06
2024-02-19T03:09:06.805Z,6.00
2024-02-19T03:11:38.022Z,6.00
2024-02-19T03:14:11.180Z,6.00
2024-02-19T03:16:42.357Z,6.00
2024-02-19T03:19:14.666Z,6.00
2024-02-19T03:21:45.889Z,6.00
2024-02-19T03:24:17.028Z,6.04
2024-02-19T03:26:48.140Z,6.10
2024-02-19T03:29:19.346Z,6.10
2024-02-19T03:31:50.492Z,6.10
2024-02-19T03:34:21.735Z,6.10
2024-02-19T03:36:54.079Z,6.10
2024-02-19T03:39:25.252Z,6.00
2024-02-19T03:41:56.562Z,6.00
2024-02-19T03:44:27.694Z,6.00
2024-02-19T03:47:01.484Z,5.94
2024-02-19T03:49:33.531Z,5.90
2024-02-19T03:52:04.790Z,5.90
2024-02-19T03:54:36.032Z,5.90
2024-02-19T03:57:07.372Z,5.90
2024-02-19T03:59:38.646Z,5.90
2024-02-19T04:02:09.830Z,5.90
2024-02-19T04:04:41.083Z,5.90
2024-02-19T04:07:12.467Z,5.90
2024-02-19T04:09:43.701Z,5.90
2024-02-19T04:12:15.016Z,5.90
2024-02-19T04:14:46.052Z,5.90
2024-02-19T04:17:17.095Z,5.90
2024-02-19T04:19:48.660Z,5.90
2024-02-19T04:22:19.911Z,5.90
2024-02-19T04:24:51.100Z,5.90
2024-02-19T04:27:22.219Z,5.90
2024-02-19T04:29:53.286Z,5.90
2024-02-19T04:32:24.486Z,5.90
2024-02-19T04:34:56.962Z,6.00
2024-02-19T04:37:28.273Z,6.00
2024-02-19T04:39:59.519Z,6.00
2024-02-19T04:42:30.730Z,6.04
2024-02-19T04:45:01.817Z,6.08
2024-02-19T04:47:33.060Z,6.10
2024-02-19T04:50:05.027Z,6.10
2024-02-19T04:52:36.295Z,6.10
2024-02-19T04:55:08.890Z,6.10
2024-02-19T04:57:40.106Z,6.10
2024-02-19T05:00:13.217Z,6.10
2024-02-19T05:02:44.371Z,6.10
2024-02-19T05:05:15.718Z,6.10
2024-02-19T05:07:47.615Z,6.12
2024-02-19T05:10:18.910Z,6.10
2024-02-19T05:12:50.099Z,6.10
2024-02-19T05:15:21.206Z,6.10
2024-02-19T05:17:52.369Z,6.10
2024-02-19T05:20:24.888Z,6.14
2024-02-19T05:22:56.031Z,6.18
2024-02-19T05:25:27.282Z,6.20
2024-02-19T05:27:59.567Z,6.20
2024-02-19T05:30:31.526Z,6.22
2024-02-19T05:33:03.434Z,6.30
2024-02-19T05:35:34.734Z,6.36
2024-02-19T05:38:06.070Z,6.40
2024-02-19T05:40:37.212Z,6.50
2024-02-19T05:43:08.471Z,6.50
2024-02-19T05:45:39.885Z,6.60
2024-02-19T05:48:11.677Z,6.70
2024-02-19T05:50:42.982Z,6.80
2024-02-19T05:53:15.409Z,6.80
2024-02-19T05:55:48.059Z,6.90
2024-02-19T05:58:19.361Z,6.98
2024-02-19T06:00:50.901Z,7.00
2024-02-19T06:03:22.809Z,7.10
2024-02-19T06:05:54.215Z,7.10
2024-02-19T06:08:25.361Z,7.12
2024-02-19T06:10:57.090Z,7.20
2024-02-19T06:13:28.298Z,7.20
2024-02-19T06:15:59.547Z,7.30
2024-02-19T06:18:30.779Z,7.30
2024-02-19T06:21:02.178Z,7.30
2024-02-19T06:23:33.400Z,7.40
2024-02-19T06:26:06.607Z,7.40
2024-02-19T06:28:37.704Z,7.42
2024-02-19T06:31:08.994Z,7.50
2024-02-19T06:33:40.401Z,7.50
2024-02-19T06:36:11.853Z,7.60
2024-02-19T06:38:43.118Z,7.60
2024-02-19T06:41:14.385Z,7.68
2024-02-19T06:43:45.479Z,7.70
2024-02-19T06:46:17.359Z,7.70
2024-02-19T06:48:50.702Z,7.70
2024-02-19T06:51:22.557Z,7.80
2024-02-19T06:53:53.693Z,7.80
2024-02-19T06:56:24.922Z,7.90
2024-02-19T06:58:56.038Z,7.90
2024-02-19T07:01:27.226Z,8.00
2024-02-19T07:03:58.847Z,8.00
2024-02-19T07:06:30.225Z,8.10
2024-02-19T07:09:01.434Z,8.10
2024-02-19T07:11:33.584Z,8.20
2024-02-19T07:14:06.281Z,8.20
2024-02-19T07:16:37.473Z,8.30
2024-02-19T07:19:09.170Z,8.40
2024-02-19T07:21:40.671Z,8.40
2024-02-19T07:24:11.843Z,8.40
2024-02-19T07:26:42.905Z,8.50
2024-02-19T07:29:14.071Z,8.50
2024-02-19T07:31:45.089Z,8.50
2024-02-19T07:34:16.402Z,8.50
2024-02-19T07:36:47.689Z,8.50
2024-02-19T07:39:20.752Z,8.60
2024-02-19T07:41:51.869Z,8.60
2024-02-19T07:44:23.279Z,8.60
2024-02-19T07:46:54.485Z,8.70
2024-02-19T07:49:25.689Z,8.80
2024-02-19T07:51:57.024Z,8.86
2024-02-19T07:54:28.249Z,9.00
2024-02-19T07:56:59.382Z,9.10
2024-02-19T07:59:30.545Z,9.30
2024-02-19T08:02:02.061Z,9.40
2024-02-19T08:04:33.503Z,9.50
2024-02-19T08:07:04.836Z,9.60
2024-02-19T08:09:36.253Z,9.60
2024-02-19T08:12:07.989Z,9.60
2024-02-19T08:14:39.139Z,9.60
2024-02-19T08:17:10.249Z,9.60
2024-02-19T08:19:41.385Z,9.60
2024-02-19T08:22:12.494Z,9.62
2024-02-19T08:24:43.687Z,9.70
2024-02-19T08:27:14.826Z,9.70
2024-02-19T08:29:46.081Z,9.80
2024-02-19T08:32:17.172Z,9.90
2024-02-19T08:34:48.708Z,10.10
2024-02-19T08:37:20.024Z,10.32
2024-02-19T08:39:51.214Z,10.70
2024-02-19T08:42:22.405Z,11.00
2024-02-19T08:44:53.543Z,11.30
2024-02-19T08:47:24.670Z,11.50
2024-02-19T08:49:56.053Z,11.70
2024-02-19T08:52:27.501Z,11.80
2024-02-19T08:54:58.711Z,11.86
2024-02-19T08:57:29.975Z,11.80
2024-02-19T09:00:01.131Z,11.80
2024-02-19T09:02:32.441Z,11.70
2024-02-19T09:05:06.066Z,11.50
2024-02-19T09:07:37.210Z,11.30
2024-02-19T09:10:10.057Z,11.12
2024-02-19T09:12:41.242Z,11.00
2024-02-19T09:15:13.247Z,10.82
2024-02-19T09:17:44.811Z,10.70
2024-02-19T09:20:18.339Z,10.70
2024-02-19T09:22:49.627Z,10.70
2024-02-19T09:25:20.909Z,10.80
2024-02-19T09:27:54.232Z,10.84
2024-02-19T09:30:25.910Z,10.80
2024-02-19T09:32:57.181Z,10.70
2024-02-19T09:35:28.473Z,10.80
2024-02-19T09:37:59.681Z,10.80
2024-02-19T09:40:32.941Z,10.80
2024-02-19T09:43:07.245Z,10.80
2024-02-19T09:45:38.641Z,10.80
2024-02-19T09:48:11.473Z,10.76
2024-02-19T09:50:48.536Z,10.70
2024-02-19T09:53:23.916Z,10.60
2024-02-19T09:55:55.479Z,10.50
2024-02-19T09:58:27.451Z,10.40
2024-02-19T10:00:58.603Z,10.30
2024-02-19T10:03:30.279Z,10.20
2024-02-19T10:06:03.837Z,10.10
2024-02-19T10:08:35.266Z,10.00
2024-02-19T10:11:09.790Z,9.90
2024-02-19T10:13:43.021Z,9.80
2024-02-19T10:16:14.366Z,9.70
2024-02-19T10:18:46.504Z,9.60
2024-02-19T10:21:17.667Z,9.50
2024-02-19T10:23:49.525Z,9.42
2024-02-19T10:26:20.582Z,9.40
2024-02-19T10:28:53.183Z,9.32
2024-02-19T10:31:24.577Z,9.30
2024-02-19T10:33:56.316Z,9.20
2024-02-19T10:36:27.628Z,9.20
2024-02-19T10:38:58.922Z,9.12
2024-02-19T10:41:30.174Z,9.20
2024-02-19T10:44:01.336Z,9.28
2024-02-19T10:46:33.037Z,9.24
2024-02-19T10:49:04.431Z,9.20
2024-02-19T10:51:35.610Z,9.20
2024-02-19T10:54:07.640Z,9.14
2024-02-19T10:56:41.117Z,9.10
2024-02-19T10:59:12.682Z,9.12
2024-02-19T11:01:46.282Z,9.20
2024-02-19T11:04:25.936Z,9.26
2024-02-19T11:06:58.249Z,9.38
2024-02-19T11:09:35.099Z,9.40
2024-02-19T11:12:07.803Z,9.40
2024-02-19T11:14:41.473Z,9.30
2024-02-19T11:17:12.725Z,9.30
2024-02-19T11:19:44.018Z,9.20
2024-02-19T11:22:22.817Z,9.20
2024-02-19T11:24:54.006Z,9.20
2024-02-19T11:27:25.260Z,9.20
2024-02-19T11:30:02.188Z,9.20
2024-02-19T11:32:33.390Z,9.30
2024-02-19T11:35:12.687Z,9.40
2024-02-19T11:37:45.560Z,9.50
2024-02-19T11:40:17.291Z,9.60
2024-02-19T11:42:48.646Z,9.70
2024-02-19T11:45:20.535Z,9.70
2024-02-19T11:47:52.070Z,9.60
2024-02-19T11:50:29.198Z,9.58
2024-02-19T11:53:00.677Z,9.50
2024-02-19T11:55:34.792Z,9.40
2024-02-19T11:58:08.217Z,9.38
2024-02-19T12:00:39.405Z,9.30
2024-02-19T12:03:10.812Z,9.30
2024-02-19T12:05:44.127Z,9.20
2024-02-19T12:08:15.448Z,9.12
2024-02-19T12:10:46.772Z,9.10
2024-02-19T12:13:20.639Z,9.00
2024-02-19T12:15:55.273Z,9.00
2024-02-19T12:18:28.450Z,8.96
2024-02-19T12:21:01.077Z,8.90
2024-02-19T12:23:32.191Z,9.00
2024-02-19T12:26:05.046Z,9.00
2024-02-19T12:28:37.615Z,9.00
2024-02-19T12:31:09.295Z,9.00
2024-02-19T12:33:40.635Z,9.00
2024-02-19T12:36:13.841Z,9.00
2024-02-19T12:38:45.937Z,8.90
2024-02-19T12:41:18.346Z,8.82
2024-02-19T12:43:49.685Z,8.78
2024-02-19T12:46:20.930Z,8.66
2024-02-19T12:48:52.297Z,8.50
2024-02-19T12:51:32.203Z,8.40
2024-02-19T12:54:04.101Z,8.40
2024-02-19T12:56:36.781Z,8.40
2024-02-19T12:59:07.942Z,8.40
2024-02-19T13:01:39.136Z,8.40
2024-02-19T13:04:10.470Z,8.40
2024-02-19T13:06:42.014Z,8.30
2024-02-19T13:09:13.796Z,8.30
2024-02-19T13:11:45.362Z,8.20
2024-02-19T13:14:16.560Z,8.10
2024-02-19T13:16:54.734Z,8.10
2024-02-19T13:19:34.086Z,8.10
2024-02-19T13:22:06.812Z,8.00
2024-02-19T13:24:38.385Z,7.96
2024-02-19T13:27:09.810Z,7.90
2024-02-19T13:29:41.194Z,7.90
2024-02-19T13:32:12.810Z,7.90
2024-02-19T13:34:44.016Z,7.90
2024-02-19T13:37:16.545Z,7.88
2024-02-19T13:39:47.764Z,7.80
2024-02-19T13:42:19.025Z,7.80
2024-02-19T13:44:50.178Z,7.74
2024-02-19T13:47:21.939Z,7.80
2024-02-19T13:49:53.148Z,7.80
2024-02-19T13:52:24.342Z,7.80
2024-02-19T13:54:55.555Z,7.80
2024-02-19T13:57:26.783Z,7.80
2024-02-19T14:00:00.678Z,7.78
2024-02-19T14:02:31.959Z,7.70
2024-02-19T14:05:03.236Z,7.70
2024-02-19T14:07:34.635Z,7.72
2024-02-19T14:10:09.343Z,7.74
2024-02-19T14:12:40.598Z,7.70
2024-02-19T14:15:12.695Z,7.80
2024-02-19T14:17:43.955Z,7.80
2024-02-19T14:20:15.324Z,7.86
2024-02-19T14:22:46.564Z,7.90
2024-02-19T14:25:17.893Z,7.80
2024-02-19T14:27:52.564Z,7.80
2024-02-19T14:30:23.771Z,7.80
2024-02-19T14:32:55.031Z,7.72
2024-02-19T14:35:26.923Z,7.70
2024-02-19T14:37:59.781Z,7.70
2024-02-19T14:40:31.027Z,7.70
2024-02-19T14:43:02.492Z,7.70
2024-02-19T14:45:33.728Z,7.70
2024-02-19T14:48:05.165Z,7.70
2024-02-19T14:50:36.431Z,7.70
2024-02-19T14:53:09.131Z,7.80
2024-02-19T14:55:40.761Z,7.80
2024-02-19T14:58:12.052Z,7.80
2024-02-19T15:00:46.288Z,7.70
2024-02-19T15:03:17.531Z,7.70
2024-02-19T15:05:48.873Z,7.70
2024-02-19T15:08:22.049Z,7.60
2024-02-19T15:10:53.386Z,7.60
2024-02-19T15:13:24.721Z,7.52
2024-02-19T15:15:56.042Z,7.50
2024-02-19T15:18:27.368Z,7.50
2024-02-19T15:20:58.671Z,7.42
2024-02-19T15:23:29.886Z,7.40
2024-02-19T15:26:02.653Z,7.40
2024-02-19T15:28:34.193Z,7.40
2024-02-19T15:31:05.680Z,7.40
2024-02-19T15:33:37.532Z,7.40
2024-02-19T15:36:11.766Z,7.42
2024-02-19T15:38:47.076Z,7.48
2024-02-19T15:41:21.525Z,7.40
2024-02-19T15:43:55.595Z,7.40
2024-02-19T15:46:28.030Z,7.40
2024-02-19T15:49:01.096Z,7.40
2024-02-19T15:51:34.614Z,7.40
2024-02-19T15:54:06.077Z,7.38
2024-02-19T15:56:38.470Z,7.30
2024-02-19T15:59:09.685Z,7.30
2024-02-19T16:01:41.837Z,7.30
2024-02-19T16:04:13.692Z,7.30
2024-02-19T16:06:45.213Z,7.30
2024-02-19T16:09:16.413Z,7.30
2024-02-19T16:11:48.596Z,7.30
2024-02-19T16:14:19.777Z,7.30
2024-02-19T16:16:50.932Z,7.30
2024-02-19T16:19:23.269Z,7.30
2024-02-19T16:21:54.722Z,7.30
2024-02-19T16:24:26.003Z,7.30
2024-02-19T16:26:57.234Z,7.30
2024-02-19T16:29:30.194Z,7.30
2024-02-19T16:32:02.285Z,7.30
2024-02-19T16:34:34.581Z,7.30
2024-02-19T16:37:06.033Z,7.30
2024-02-19T16:39:37.284Z,7.30
2024-02-19T16:42:09.887Z,7.30
2024-02-19T16:44:41.690Z,7.34
2024-02-19T16:47:13.099Z,7.38
2024-02-19T16:49:45.185Z,7.40
2024-02-19T16:52:18.499Z,7.40
2024-02-19T16:54:49.812Z,7.40
2024-02-19T16:57:22.782Z,7.40
2024-02-19T16:59:53.937Z,7.40
2024-02-19T17:02:25.092Z,7.40
2024-02-19T17:04:56.480Z,7.40
2024-02-19T17:07:29.697Z,7.40
2024-02-19T17:10:05.308Z,7.40
2024-02-19T17:12:37.007Z,7.40
2024-02-19T17:15:08.785Z,7.40
2024-02-19T17:17:40.626Z,7.40
2024-02-19T17:20:13.630Z,7.40
2024-02-19T17:22:44.912Z,7.40
2024-02-19T17:25:16.300Z,7.40
2024-02-19T17:27:47.739Z,7.40
2024-02-19T17:30:19.414Z,7.42
2024-02-19T17:32:50.820Z,7.40
2024-02-19T17:35:24.506Z,7.40
2024-02-19T17:37:55.690Z,7.40
2024-02-19T17:40:27.485Z,7.40
2024-02-19T17:42:58.730Z,7.32
2024-02-19T17:45:29.867Z,7.34
2024-02-19T17:48:01.177Z,7.40
2024-02-19T17:50:36.930Z,7.40
2024-02-19T17:53:08.264Z,7.40
2024-02-19T17:55:41.049Z,7.40
2024-02-19T17:58:12.388Z,7.38
2024-02-19T18:00:43.670Z,7.30
2024-02-19T18:03:14.771Z,7.30
2024-02-19T18:05:46.176Z,7.30
2024-02-19T18:08:17.262Z,7.30
2024-02-19T18:10:48.540Z,7.30
2024-02-19T18:13:22.567Z,7.30
2024-02-19T18:15:54.156Z,7.30
2024-02-19T18:18:25.440Z,7.30
2024-02-19T18:20:56.746Z,7.30
2024-02-19T18:23:28.372Z,7.30
2024-02-19T18:25:59.461Z,7.30
2024-02-19T18:28:31.455Z,7.30
2024-02-19T18:31:05.562Z,7.30
2024-02-19T18:33:36.870Z,7.40
2024-02-19T18:36:09.149Z,7.40
2024-02-19T18:38:40.515Z,7.40
2024-02-19T18:41:12.686Z,7.40
2024-02-19T18:43:44.922Z,7.40
2024-02-19T18:46:17.692Z,7.40
2024-02-19T18:48:48.952Z,7.44
2024-02-19T18:51:20.229Z,7.46
2024-02-19T18:53:51.848Z,7.44
2024-02-19T18:56:23.068Z,7.42
2024-02-19T18:58:55.891Z,7.44
2024-02-19T19:01:27.152Z,7.42
2024-02-19T19:03:58.423Z,7.42
2024-02-19T19:06:30.819Z,7.42
2024-02-19T19:09:06.889Z,7.46
2024-02-19T19:11:38.489Z,7.50
2024-02-19T19:14:12.368Z,7.50
2024-02-19T19:16:43.787Z,7.60
2024-02-19T19:19:15.343Z,7.60
2024-02-19T19:21:46.673Z,7.60
2024-02-19T19:24:18.039Z,7.60
2024-02-19T19:26:49.257Z,7.60
2024-02-19T19:29:22.137Z,7.62
2024-02-19T19:31:53.350Z,7.64
2024-02-19T19:34:24.882Z,7.70
2024-02-19T19:36:56.195Z,7.70
2024-02-19T19:39:27.317Z,7.70
2024-02-19T19:41:58.480Z,7.70
2024-02-19T19:44:30.842Z,7.70
2024-02-19T19:47:01.987Z,7.70
2024-02-19T19:49:33.326Z,7.80
2024-02-19T19:52:04.985Z,7.80
2024-02-19T19:54:36.303Z,7.80
2024-02-19T19:57:07.594Z,7.80
2024-02-19T19:59:38.744Z,7.80
2024-02-19T20:02:09.914Z,7.80
2024-02-19T20:04:41.296Z,7.80
2024-02-19T20:07:12.620Z,7.80
2024-02-19T20:09:47.049Z,7.80
2024-02-19T20:12:20.329Z,7.80
2024-02-19T20:14:52.897Z,7.74
2024-02-19T20:17:25.906Z,7.70
2024-02-19T20:19:57.051Z,7.70
2024-02-19T20:22:30.140Z,7.70
2024-02-19T20:25:01.358Z,7.70
2024-02-19T20:27:32.668Z,7.70
2024-02-19T20:30:04.136Z,7.76
2024-02-19T20:32:35.482Z,7.80
2024-02-19T20:35:07.672Z,7.80
2024-02-19T20:37:38.826Z,7.80
2024-02-19T20:40:13.656Z,7.80
2024-02-19T20:42:46.661Z,7.80
2024-02-19T20:45:18.990Z,7.80
2024-02-19T20:47:50.368Z,7.70
2024-02-19T20:50:21.842Z,7.70
2024-02-19T20:52:53.014Z,7.70
2024-02-19T20:55:24.474Z,7.70
2024-02-19T20:57:56.117Z,7.60
2024-02-19T21:00:27.686Z,7.60
2024-02-19T21:02:58.822Z,7.60
2024-02-19T21:05:30.459Z,7.60
2024-02-19T21:08:01.862Z,7.60
2024-02-19T21:10:34.686Z,7.60
2024-02-19T21:13:06.522Z,7.60
2024-02-19T21:15:37.835Z,7.60
2024-02-19T21:18:13.961Z,7.60
2024-02-19T21:20:45.902Z,7.60
2024-02-19T21:23:17.289Z,7.60
2024-02-19T21:25:48.777Z,7.60
2024-02-19T21:28:20.104Z,7.60
2024-02-19T21:30:51.880Z,7.62
2024-02-19T21:33:23.141Z,7.70
2024-02-19T21:35:55.075Z,7.70
2024-02-19T21:38:26.735Z,7.70
2024-02-19T21:40:57.873Z,7.70
2024-02-19T21:43:29.086Z,7.70
2024-02-19T21:46:00.902Z,7.70
2024-02-19T21:48:33.120Z,7.72
2024-02-19T21:51:06.800Z,7.70
2024-02-19T21:53:38.156Z,7.70
2024-02-19T21:56:10.487Z,7.70
2024-02-19T21:58:42.239Z,7.70
2024-02-19T22:01:13.528Z,7.70
2024-02-19T22:03:44.949Z,7.70
2024-02-19T22:06:16.330Z,7.70
2024-02-19T22:08:47.607Z,7.70
2024-02-19T22:11:21.021Z,7.80
2024-02-19T22:13:52.281Z,7.80
2024-02-19T22:16:24.160Z,7.80
2024-02-19T22:18:55.436Z,7.82
2024-02-19T22:21:29.116Z,7.90
2024-02-19T22:24:01.551Z,7.90
2024-02-19T22:26:32.797Z,7.90
2024-02-19T22:29:04.202Z,7.90
2024-02-19T22:31:35.585Z,7.90
2024-02-19T22:34:07.122Z,8.00
2024-02-19T22:36:38.503Z,8.00
2024-02-19T22:39:11.076Z,8.00
2024-02-19T22:41:55.139Z,8.00
2024-02-19T22:44:26.517Z,8.00
2024-02-19T22:46:57.676Z,8.00
2024-02-19T22:49:29.032Z,8.00
2024-02-19T22:52:00.562Z,8.00
2024-02-19T22:54:32.202Z,8.00
2024-02-19T22:57:03.475Z,8.00
2024-02-19T22:59:34.715Z,8.00
2024-02-19T23:02:06.068Z,8.00
2024-02-19T23:04:37.734Z,8.00
2024-02-19T23:07:09.930Z,8.06
2024-02-19T23:09:41.123Z,8.00
2024-02-19T23:12:12.763Z,8.02
2024-02-19T23:14:43.920Z,8.02
2024-02-19T23:17:15.284Z,8.00
2024-02-19T23:19:46.664Z,8.00
2024-02-19T23:22:17.897Z,8.00
2024-02-19T23:24:49.164Z,8.00
2024-02-19T23:27:20.433Z,8.00
2024-02-19T23:29:51.588Z,8.00
2024-02-19T23:32:22.837Z,8.04
2024-02-19T23:34:54.300Z,8.06
2024-02-19T23:37:25.809Z,8.04
2024-02-19T23:39:57.167Z,8.08
2024-02-19T23:42:28.471Z,8.04
2024-02-19T23:44:59.671Z,8.00
2024-02-19T23:47:30.899Z,8.00
2024-02-19T23:50:02.260Z,8.00
2024-02-19T23:52:33.642Z,8.04
2024-02-19T23:55:05.306Z,8.02
2024-02-19T23:57:37.464Z,8.08
